createdAt,value
2018-12-01T00:02:26.728Z,2.52
2018-12-01T00:07:44.161Z,2.53
2018-12-01T00:12:46.564Z,2.56
2018-12-01T00:17:48.947Z,2.60
2018-12-01T00:22:51.312Z,2.60
2018-12-01T00:27:53.644Z,2.64
2018-12-01T00:32:56.421Z,2.61
2018-12-01T00:37:58.908Z,2.60
2018-12-01T00:43:01.260Z,2.59
2018-12-01T00:48:03.609Z,2.60
2018-12-01T00:53:06.106Z,2.63
2018-12-01T00:58:08.484Z,2.67
2018-12-01T01:03:10.788Z,2.68
2018-12-01T01:08:13.296Z,2.71
2018-12-01T01:13:15.711Z,2.73
2018-12-01T01:18:18.031Z,2.76
2018-12-01T01:23:20.404Z,2.80
2018-12-01T01:28:22.700Z,2.83
2018-12-01T01:33:28.451Z,2.83
2018-12-01T01:38:30.979Z,2.82
2018-12-01T01:49:00.420Z,2.81
2018-12-01T01:54:02.874Z,2.80
2018-12-01T01:59:05.227Z,2.84
2018-12-01T02:04:07.564Z,2.85
2018-12-01T02:09:09.972Z,2.88
2018-12-01T02:14:12.291Z,2.90
2018-12-01T02:19:14.634Z,2.90
2018-12-01T02:24:17.249Z,2.92
2018-12-01T02:29:19.609Z,2.96
2018-12-01T02:34:21.943Z,2.98
2018-12-01T02:39:24.429Z,2.98
2018-12-01T02:45:36.081Z,3.02
2018-12-01T02:50:38.389Z,3.00
2018-12-01T02:55:40.763Z,3.02
2018-12-01T03:00:43.117Z,3.06
2018-12-01T03:05:45.413Z,3.05
2018-12-01T03:10:47.749Z,3.10
2018-12-01T03:15:50.058Z,3.14
2018-12-01T03:20:52.363Z,3.18
2018-12-01T03:25:55.000Z,3.19
2018-12-01T03:30:57.381Z,3.23
2018-12-01T03:35:59.742Z,3.24
2018-12-01T03:41:02.178Z,3.20
2018-12-01T03:46:04.900Z,3.16
2018-12-01T03:51:07.512Z,3.14
2018-12-01T03:56:09.897Z,3.14
2018-12-01T04:01:12.265Z,3.10
2018-12-01T04:06:14.563Z,3.08
2018-12-01T04:11:16.929Z,3.07
2018-12-01T04:16:19.247Z,3.07
2018-12-01T04:21:21.548Z,3.05
2018-12-01T04:26:24.099Z,3.04
2018-12-01T04:31:26.465Z,3.06
2018-12-01T04:36:29.864Z,3.05
2018-12-01T04:41:32.409Z,3.04
2018-12-01T04:46:34.800Z,3.01
2018-12-01T04:51:37.191Z,3.02
2018-12-01T04:56:39.686Z,3.00
2018-12-01T05:01:42.322Z,2.99
2018-12-01T05:06:44.761Z,2.97
2018-12-01T05:11:47.235Z,2.99
2018-12-01T05:16:49.960Z,3.00
2018-12-01T05:21:52.352Z,2.91
2018-12-01T05:26:54.701Z,2.82
2018-12-01T05:31:57.105Z,2.76
2018-12-01T05:36:59.527Z,2.73
2018-12-01T05:42:02.644Z,2.72
2018-12-01T05:47:05.476Z,2.76
2018-12-01T05:52:07.972Z,2.80
2018-12-01T05:57:10.374Z,2.81
2018-12-01T06:02:12.714Z,2.82
2018-12-01T06:07:15.060Z,2.84
2018-12-01T06:12:17.492Z,2.90
2018-12-01T06:17:19.987Z,3.01
2018-12-01T06:22:22.352Z,3.14
2018-12-01T06:27:24.711Z,3.15
2018-12-01T06:32:27.065Z,3.23
2018-12-01T06:37:30.532Z,3.30
2018-12-01T06:42:32.931Z,3.37
2018-12-01T06:47:35.283Z,3.46
2018-12-01T06:52:37.729Z,3.51
2018-12-01T06:57:40.289Z,3.51
2018-12-01T07:02:43.185Z,3.54
2018-12-01T07:07:45.591Z,3.57
2018-12-01T07:12:58.204Z,3.57
2018-12-01T07:18:00.619Z,3.57
2018-12-01T07:23:02.980Z,3.55
2018-12-01T07:28:05.362Z,3.57
2018-12-01T07:33:07.704Z,3.61
2018-12-01T07:38:10.064Z,3.64
2018-12-01T07:43:12.493Z,3.67
2018-12-01T07:48:14.829Z,3.73
2018-12-01T07:53:17.534Z,3.75
2018-12-01T07:58:19.707Z,3.79
2018-12-01T08:03:22.823Z,3.82
2018-12-01T08:08:25.322Z,3.87
2018-12-01T08:13:27.808Z,3.93
2018-12-01T08:18:30.166Z,3.98
2018-12-01T08:23:32.507Z,4.08
2018-12-01T08:28:35.877Z,4.18
2018-12-01T08:33:38.221Z,4.28
2018-12-01T08:38:40.675Z,4.34
2018-12-01T08:43:43.051Z,4.35
2018-12-01T08:48:45.436Z,4.40
2018-12-01T08:53:47.806Z,4.46
2018-12-01T08:58:53.128Z,4.51
2018-12-01T09:03:55.568Z,4.57
2018-12-01T09:08:57.975Z,4.70
2018-12-01T09:14:00.334Z,4.82
2018-12-01T09:19:03.155Z,4.93
2018-12-01T09:24:06.147Z,5.08
2018-12-01T09:29:08.492Z,5.15
2018-12-01T09:34:10.819Z,5.23
2018-12-01T09:39:13.148Z,5.29
2018-12-01T09:44:17.329Z,5.36
2018-12-01T09:49:18.603Z,5.46
2018-12-01T09:54:20.980Z,5.55
2018-12-01T09:59:23.351Z,5.72
2018-12-01T10:04:25.687Z,5.82
2018-12-01T10:09:28.183Z,5.95
2018-12-01T10:14:30.584Z,6.08
2018-12-01T10:19:32.931Z,6.15
2018-12-01T10:24:35.316Z,6.21
2018-12-01T10:29:37.702Z,6.32
2018-12-01T10:34:40.055Z,6.42
2018-12-01T10:39:42.399Z,6.55
2018-12-01T10:44:44.816Z,6.72
2018-12-01T10:49:47.193Z,6.94
2018-12-01T10:54:49.579Z,7.06
2018-12-01T10:59:51.903Z,7.17
2018-12-01T11:04:54.228Z,7.21
2018-12-01T11:09:56.647Z,7.23
2018-12-01T11:14:59.055Z,7.29
2018-12-01T11:20:01.451Z,7.31
2018-12-01T11:25:06.276Z,7.44
2018-12-01T11:30:13.047Z,7.52
2018-12-01T11:35:15.502Z,7.63
2018-12-01T11:40:18.676Z,7.73
2018-12-01T11:45:21.099Z,7.84
2018-12-01T11:50:23.580Z,7.85
2018-12-01T11:55:25.943Z,7.93
2018-12-01T12:00:28.295Z,8.05
2018-12-01T12:05:30.674Z,8.10
2018-12-01T12:10:33.008Z,8.11
2018-12-01T12:15:35.443Z,8.05
2018-12-01T12:20:38.093Z,8.16
2018-12-01T12:25:40.527Z,8.15
2018-12-01T12:30:42.937Z,8.11
2018-12-01T12:35:45.877Z,8.02
2018-12-01T12:40:48.202Z,8.36
2018-12-01T12:45:50.571Z,8.65
2018-12-01T12:50:53.312Z,8.74
2018-12-01T12:55:55.376Z,8.74
2018-12-01T13:00:57.699Z,8.44
2018-12-01T13:06:00.040Z,8.55
2018-12-01T13:11:02.404Z,8.44
2018-12-01T13:16:05.035Z,8.37
2018-12-01T13:21:07.454Z,8.10
2018-12-01T13:26:09.928Z,8.01
2018-12-01T13:31:12.270Z,7.88
2018-12-01T13:36:14.671Z,7.90
2018-12-01T13:41:18.037Z,8.08
2018-12-01T13:46:22.047Z,7.59
2018-12-01T13:51:24.431Z,7.32
2018-12-01T13:56:26.799Z,7.21
2018-12-01T14:01:29.151Z,7.05
2018-12-01T14:06:31.515Z,6.99
2018-12-01T14:11:34.024Z,6.91
2018-12-01T14:16:36.453Z,6.87
2018-12-01T14:21:38.828Z,6.83
2018-12-01T14:26:41.187Z,6.75
2018-12-01T14:31:44.139Z,6.69
2018-12-01T14:36:46.532Z,6.68
2018-12-01T14:41:48.883Z,6.65
2018-12-01T14:46:54.160Z,6.61
2018-12-01T14:51:56.624Z,6.60
2018-12-01T14:56:59.677Z,6.56
2018-12-01T15:02:02.060Z,6.54
2018-12-01T15:07:04.792Z,6.50
2018-12-01T15:12:07.117Z,6.47
2018-12-01T15:17:09.495Z,6.43
2018-12-01T15:22:11.829Z,6.36
2018-12-01T15:27:14.156Z,6.24
2018-12-01T15:32:16.603Z,6.09
2018-12-01T15:37:19.011Z,5.91
2018-12-01T15:42:22.631Z,5.79
2018-12-01T15:47:25.077Z,5.65
2018-12-01T15:52:27.529Z,5.56
2018-12-01T15:57:29.955Z,5.48
2018-12-01T16:02:32.372Z,5.37
2018-12-01T16:07:34.829Z,5.23
2018-12-01T16:12:37.175Z,5.14
2018-12-01T16:17:39.615Z,5.04
2018-12-01T16:22:41.991Z,4.95
2018-12-01T16:27:45.104Z,4.93
2018-12-01T16:32:48.818Z,4.93
2018-12-01T16:37:51.964Z,4.87
2018-12-01T16:42:55.268Z,4.84
2018-12-01T16:47:57.696Z,4.75
2018-12-01T16:53:00.659Z,4.57
2018-12-01T16:58:03.071Z,4.51
2018-12-01T17:03:05.999Z,4.45
2018-12-01T17:08:08.376Z,4.46
2018-12-01T17:13:10.769Z,4.46
2018-12-01T17:18:13.414Z,4.46
2018-12-01T17:23:16.492Z,4.44
2018-12-01T17:28:20.079Z,4.44
2018-12-01T17:33:28.171Z,4.48
2018-12-01T17:38:30.593Z,4.55
2018-12-01T17:43:37.276Z,4.59
2018-12-01T17:48:40.797Z,4.65
2018-12-01T17:53:45.679Z,4.75
2018-12-01T17:58:48.759Z,4.77
2018-12-01T18:03:52.194Z,4.77
2018-12-01T18:08:54.592Z,4.78
2018-12-01T18:13:56.973Z,4.76
2018-12-01T18:18:59.398Z,4.67
2018-12-01T18:24:01.752Z,4.59
2018-12-01T18:29:05.651Z,4.50
2018-12-01T18:34:11.559Z,4.42
2018-12-01T18:39:18.380Z,4.33
2018-12-01T18:44:20.783Z,4.25
2018-12-01T18:49:23.194Z,4.21
2018-12-01T18:54:25.616Z,4.13
2018-12-01T18:59:27.971Z,4.08
2018-12-01T19:04:30.284Z,4.06
2018-12-01T19:09:32.623Z,4.05
2018-12-01T19:14:35.033Z,4.01
2018-12-01T19:19:38.487Z,4.02
2018-12-01T19:24:40.828Z,3.99
2018-12-01T19:29:43.151Z,3.96
2018-12-01T19:34:45.597Z,3.91
2018-12-01T19:39:48.004Z,3.89
2018-12-01T19:44:50.450Z,3.97
2018-12-01T19:49:52.849Z,4.06
2018-12-01T19:54:55.255Z,4.18
2018-12-01T19:59:57.648Z,4.26
2018-12-01T20:05:00.006Z,4.46
2018-12-01T20:10:02.627Z,4.54
2018-12-01T20:15:15.819Z,4.56
2018-12-01T20:20:18.269Z,4.77
2018-12-01T20:25:20.827Z,4.77
2018-12-01T20:30:23.174Z,4.74
2018-12-01T20:35:35.466Z,4.84
2018-12-01T20:40:37.795Z,4.90
2018-12-01T20:45:40.306Z,4.81
2018-12-01T20:50:42.829Z,4.98
2018-12-01T20:55:47.935Z,4.98
2018-12-01T21:00:50.308Z,4.99
2018-12-01T21:05:52.678Z,4.91
2018-12-01T21:10:56.939Z,4.90
2018-12-01T21:15:59.390Z,4.94
2018-12-01T21:21:08.534Z,4.94
2018-12-01T21:26:10.959Z,5.01
2018-12-01T21:31:13.320Z,5.01
2018-12-01T21:36:15.694Z,5.03
2018-12-01T21:41:18.068Z,5.18
2018-12-01T21:46:20.439Z,5.24
2018-12-01T21:51:22.883Z,5.27
2018-12-01T21:56:25.342Z,5.26
2018-12-01T22:01:28.482Z,5.32
2018-12-01T22:06:31.023Z,5.46
2018-12-01T22:11:33.387Z,5.36
2018-12-01T22:16:35.819Z,5.37
2018-12-01T22:21:38.295Z,5.36
2018-12-01T22:26:40.643Z,5.30
2018-12-01T22:31:42.991Z,5.27
2018-12-01T22:36:45.338Z,5.28
2018-12-01T22:41:47.760Z,5.11
2018-12-01T22:46:50.161Z,4.94
2018-12-01T22:51:52.620Z,4.74
2018-12-01T22:56:55.014Z,4.58
2018-12-01T23:01:57.454Z,4.46
2018-12-01T23:07:00.112Z,4.43
2018-12-01T23:12:02.487Z,4.48
2018-12-01T23:17:05.104Z,4.46
2018-12-01T23:22:07.519Z,4.41
2018-12-01T23:27:09.879Z,4.37
2018-12-01T23:32:12.248Z,4.38
2018-12-01T23:37:14.640Z,4.41
2018-12-01T23:42:17.025Z,4.50
2018-12-01T23:47:19.381Z,4.59
2018-12-01T23:52:21.845Z,4.82
2018-12-01T23:57:24.991Z,4.88
